<?xml version="1.0" encoding="UTF-8" standalone="no" ?><gpx xmlns="http://www.topografix.com/GPX/1/1" xmlns:gpxx="http://www.garmin.com/xmlschemas/GpxExtensions/v3" xmlns:wptx1="http://www.garmin.com/xmlschemas/WaypointExtension/v1" xmlns:gpxtpx="http://www.garmin.com/xmlschemas/TrackPointExtension/v1" creator="GuideVTT.com" version="1.1" xmlns:xsi="http://www.w3.org/2001/XMLSchema-instance" xsi:schemaLocation="http://www.topografix.com/GPX/1/1 http://www.topografix.com/GPX/1/1/gpx.xsd http://www.garmin.com/xmlschemas/GpxExtensions/v3 http://www8.garmin.com/xmlschemas/GpxExtensionsv3.xsd http://www.garmin.com/xmlschemas/WaypointExtension/v1 http://www8.garmin.com/xmlschemas/WaypointExtensionv1.xsd http://www.garmin.com/xmlschemas/TrackPointExtension/v1 http://www.garmin.com/xmlschemas/TrackPointExtensionv1.xsd">
<metadata><link href="http://www.garmin.com"><text>Garmin International</text></link><time>2013-06-22T15:13:50Z</time></metadata>
<trk><name>cossonay2.gpx</name><extensions><gpxx:TrackExtension><gpxx:DisplayColor>Cyan</gpxx:DisplayColor></gpxx:TrackExtension></extensions><trkseg>
<trkpt lat="46.61126708" lon="6.50810919"><ele></ele><time>2014-7-27T22:6:38Z</time></trkpt>
<trkpt lat="46.61137202" lon="6.50799327"><ele></ele><time>2014-7-27T22:6:41Z</time></trkpt>
<trkpt lat="46.61105418" lon="6.50760778"><ele></ele><time>2014-7-27T22:6:44Z</time></trkpt>
<trkpt lat="46.61156086" lon="6.50665233"><ele></ele><time>2014-7-27T22:6:47Z</time></trkpt>
<trkpt lat="46.61125844" lon="6.50545187"><ele></ele><time>2014-7-27T22:6:50Z</time></trkpt>
<trkpt lat="46.61080607" lon="6.50426407"><ele></ele><time>2014-7-27T22:6:53Z</time></trkpt>
<trkpt lat="46.61033694" lon="6.50307753"><ele></ele><time>2014-7-27T22:6:56Z</time></trkpt>
<trkpt lat="46.60999479" lon="6.50187247"><ele></ele><time>2014-7-27T22:6:59Z</time></trkpt>
<trkpt lat="46.60971500" lon="6.50071383"><ele></ele><time>2014-7-27T22:7:2Z</time></trkpt>
<trkpt lat="46.60993184" lon="6.49942428"><ele></ele><time>2014-7-27T22:7:5Z</time></trkpt>
<trkpt lat="46.61020752" lon="6.49814730"><ele></ele><time>2014-7-27T22:7:8Z</time></trkpt>
<trkpt lat="46.61047733" lon="6.49682933"><ele></ele><time>2014-7-27T22:7:11Z</time></trkpt>
<trkpt lat="46.61036736" lon="6.49567698"><ele></ele><time>2014-7-27T22:7:14Z</time></trkpt>
<trkpt lat="46.60949422" lon="6.49532343"><ele></ele><time>2014-7-27T22:7:17Z</time></trkpt>
<trkpt lat="46.60911134" lon="6.49454936"><ele></ele><time>2014-7-27T22:7:20Z</time></trkpt>
<trkpt lat="46.60941132" lon="6.49323592"><ele></ele><time>2014-7-27T22:7:23Z</time></trkpt>
<trkpt lat="46.60970888" lon="6.49193538"><ele></ele><time>2014-7-27T22:7:26Z</time></trkpt>
<trkpt lat="46.61055537" lon="6.49209330"><ele></ele><time>2014-7-27T22:7:29Z</time></trkpt>
<trkpt lat="46.61145994" lon="6.49237166"><ele></ele><time>2014-7-27T22:7:32Z</time></trkpt>
<trkpt lat="46.61196898" lon="6.49167663"><ele></ele><time>2014-7-27T22:7:35Z</time></trkpt>
<trkpt lat="46.61206034" lon="6.49036998"><ele></ele><time>2014-7-27T22:7:38Z</time></trkpt>
<trkpt lat="46.61133187" lon="6.48987385"><ele></ele><time>2014-7-27T22:7:41Z</time></trkpt>
<trkpt lat="46.61136280" lon="6.48840870"><ele></ele><time>2014-7-27T22:7:44Z</time></trkpt>
<trkpt lat="46.61098260" lon="6.48729692"><ele></ele><time>2014-7-27T22:7:47Z</time></trkpt>
<trkpt lat="46.61114378" lon="6.48615916"><ele></ele><time>2014-7-27T22:7:50Z</time></trkpt>
<trkpt lat="46.61207836" lon="6.48587342"><ele></ele><time>2014-7-27T22:7:53Z</time></trkpt>
<trkpt lat="46.61277037" lon="6.48566388"><ele></ele><time>2014-7-27T22:7:56Z</time></trkpt>
<trkpt lat="46.61345098" lon="6.48520748"><ele></ele><time>2014-7-27T22:7:59Z</time></trkpt>
<trkpt lat="46.61430862" lon="6.48482443"><ele></ele><time>2014-7-27T22:8:2Z</time></trkpt>
<trkpt lat="46.61522476" lon="6.48445923"><ele></ele><time>2014-7-27T22:8:5Z</time></trkpt>
<trkpt lat="46.61495168" lon="6.48328878"><ele></ele><time>2014-7-27T22:8:8Z</time></trkpt>
<trkpt lat="46.61459536" lon="6.48199327"><ele></ele><time>2014-7-27T22:8:11Z</time></trkpt>
<trkpt lat="46.61430434" lon="6.48069475"><ele></ele><time>2014-7-27T22:8:14Z</time></trkpt>
<trkpt lat="46.61446234" lon="6.47938013"><ele></ele><time>2014-7-27T22:8:17Z</time></trkpt>
<trkpt lat="46.61482587" lon="6.47808018"><ele></ele><time>2014-7-27T22:8:20Z</time></trkpt>
<trkpt lat="46.61508906" lon="6.47693949"><ele></ele><time>2014-7-27T22:8:23Z</time></trkpt>
<trkpt lat="46.61446217" lon="6.47585277"><ele></ele><time>2014-7-27T22:8:26Z</time></trkpt>
<trkpt lat="46.61454717" lon="6.47464553"><ele></ele><time>2014-7-27T22:8:29Z</time></trkpt>
<trkpt lat="46.61500867" lon="6.47350852"><ele></ele><time>2014-7-27T22:8:32Z</time></trkpt>
<trkpt lat="46.61552089" lon="6.47239574"><ele></ele><time>2014-7-27T22:8:35Z</time></trkpt>
<trkpt lat="46.61516248" lon="6.47112689"><ele></ele><time>2014-7-27T22:8:38Z</time></trkpt>
<trkpt lat="46.61512326" lon="6.46988092"><ele></ele><time>2014-7-27T22:8:41Z</time></trkpt>
<trkpt lat="46.61528528" lon="6.46856136"><ele></ele><time>2014-7-27T22:8:44Z</time></trkpt>
<trkpt lat="46.61550497" lon="6.46728856"><ele></ele><time>2014-7-27T22:8:47Z</time></trkpt>
<trkpt lat="46.61599330" lon="6.46629657"><ele></ele><time>2014-7-27T22:8:50Z</time></trkpt>
<trkpt lat="46.61600302" lon="6.46498622"><ele></ele><time>2014-7-27T22:8:53Z</time></trkpt>
<trkpt lat="46.61659604" lon="6.46395902"><ele></ele><time>2014-7-27T22:8:56Z</time></trkpt>
<trkpt lat="46.61711605" lon="6.46285244"><ele></ele><time>2014-7-27T22:8:59Z</time></trkpt>
<trkpt lat="46.61761553" lon="6.46170027"><ele></ele><time>2014-7-27T22:9:2Z</time></trkpt>
<trkpt lat="46.61769725" lon="6.46036226"><ele></ele><time>2014-7-27T22:9:5Z</time></trkpt>
<trkpt lat="46.61776154" lon="6.45894656"><ele></ele><time>2014-7-27T22:9:8Z</time></trkpt>
<trkpt lat="46.61797788" lon="6.45766170"><ele></ele><time>2014-7-27T22:9:11Z</time></trkpt>
<trkpt lat="46.61835473" lon="6.45643232"><ele></ele><time>2014-7-27T22:9:14Z</time></trkpt>
<trkpt lat="46.61874063" lon="6.45522919"><ele></ele><time>2014-7-27T22:9:17Z</time></trkpt>
<trkpt lat="46.61920139" lon="6.45407718"><ele></ele><time>2014-7-27T22:9:20Z</time></trkpt>
<trkpt lat="46.61984663" lon="6.45311309"><ele></ele><time>2014-7-27T22:9:23Z</time></trkpt>
<trkpt lat="46.62050243" lon="6.45212897"><ele></ele><time>2014-7-27T22:9:26Z</time></trkpt>
<trkpt lat="46.62114934" lon="6.45115223"><ele></ele><time>2014-7-27T22:9:29Z</time></trkpt>
<trkpt lat="46.62176155" lon="6.45011983"><ele></ele><time>2014-7-27T22:9:32Z</time></trkpt>
<trkpt lat="46.62237679" lon="6.44907628"><ele></ele><time>2014-7-27T22:9:35Z</time></trkpt>
<trkpt lat="46.62293133" lon="6.44802636"><ele></ele><time>2014-7-27T22:9:38Z</time></trkpt>
<trkpt lat="46.62331070" lon="6.44676732"><ele></ele><time>2014-7-27T22:9:41Z</time></trkpt>
<trkpt lat="46.62375838" lon="6.44561036"><ele></ele><time>2014-7-27T22:9:44Z</time></trkpt>
<trkpt lat="46.62416272" lon="6.44435928"><ele></ele><time>2014-7-27T22:9:47Z</time></trkpt>
<trkpt lat="46.62450294" lon="6.44308205"><ele></ele><time>2014-7-27T22:9:50Z</time></trkpt>
<trkpt lat="46.62480955" lon="6.44185762"><ele></ele><time>2014-7-27T22:9:53Z</time></trkpt>
<trkpt lat="46.62484836" lon="6.44048047"><ele></ele><time>2014-7-27T22:9:56Z</time></trkpt>
<trkpt lat="46.62478323" lon="6.43917876"><ele></ele><time>2014-7-27T22:9:59Z</time></trkpt>
<trkpt lat="46.62525195" lon="6.43806866"><ele></ele><time>2014-7-27T22:10:2Z</time></trkpt>
<trkpt lat="46.62582519" lon="6.43702973"><ele></ele><time>2014-7-27T22:10:5Z</time></trkpt>
<trkpt lat="46.62641854" lon="6.43600035"><ele></ele><time>2014-7-27T22:10:8Z</time></trkpt>
<trkpt lat="46.62707786" lon="6.43502167"><ele></ele><time>2014-7-27T22:10:11Z</time></trkpt>
<trkpt lat="46.62777398" lon="6.43416873"><ele></ele><time>2014-7-27T22:10:14Z</time></trkpt>
<trkpt lat="46.62830673" lon="6.43308495"><ele></ele><time>2014-7-27T22:10:17Z</time></trkpt>
<trkpt lat="46.62871409" lon="6.43186983"><ele></ele><time>2014-7-27T22:10:20Z</time></trkpt>
<trkpt lat="46.62870294" lon="6.43056108"><ele></ele><time>2014-7-27T22:10:23Z</time></trkpt>
<trkpt lat="46.62814144" lon="6.42950353"><ele></ele><time>2014-7-27T22:10:26Z</time></trkpt>
<trkpt lat="46.62823238" lon="6.42816352"><ele></ele><time>2014-7-27T22:10:29Z</time></trkpt>
<trkpt lat="46.62825443" lon="6.42681613"><ele></ele><time>2014-7-27T22:10:32Z</time></trkpt>
<trkpt lat="46.62860454" lon="6.42561525"><ele></ele><time>2014-7-27T22:10:35Z</time></trkpt>
<trkpt lat="46.62940619" lon="6.42496012"><ele></ele><time>2014-7-27T22:10:38Z</time></trkpt>
<trkpt lat="46.63007875" lon="6.42405035"><ele></ele><time>2014-7-27T22:10:41Z</time></trkpt>
<trkpt lat="46.63078920" lon="6.42322783"><ele></ele><time>2014-7-27T22:10:44Z</time></trkpt>
<trkpt lat="46.63147367" lon="6.42231974"><ele></ele><time>2014-7-27T22:10:47Z</time></trkpt>
<trkpt lat="46.63191439" lon="6.42118122"><ele></ele><time>2014-7-27T22:10:50Z</time></trkpt>
<trkpt lat="46.63222385" lon="6.41994850"><ele></ele><time>2014-7-27T22:10:53Z</time></trkpt>
<trkpt lat="46.63259785" lon="6.41859356"><ele></ele><time>2014-7-27T22:10:56Z</time></trkpt>
<trkpt lat="46.63299909" lon="6.41721114"><ele></ele><time>2014-7-27T22:10:59Z</time></trkpt>
<trkpt lat="46.63340000" lon="6.41594572"><ele></ele><time>2014-7-27T22:11:2Z</time></trkpt>
<trkpt lat="46.63386620" lon="6.41515707"><ele></ele><time>2014-7-27T22:11:5Z</time></trkpt>
<trkpt lat="46.63484353" lon="6.41544264"><ele></ele><time>2014-7-27T22:11:8Z</time></trkpt>
<trkpt lat="46.63589772" lon="6.41552067"><ele></ele><time>2014-7-27T22:11:11Z</time></trkpt>
<trkpt lat="46.63682308" lon="6.41596827"><ele></ele><time>2014-7-27T22:11:14Z</time></trkpt>
<trkpt lat="46.63768156" lon="6.41682859"><ele></ele><time>2014-7-27T22:11:17Z</time></trkpt>
<trkpt lat="46.63861622" lon="6.41714123"><ele></ele><time>2014-7-27T22:11:20Z</time></trkpt>
<trkpt lat="46.63939079" lon="6.41754499"><ele></ele><time>2014-7-27T22:11:23Z</time></trkpt>
<trkpt lat="46.63954368" lon="6.41879967"><ele></ele><time>2014-7-27T22:11:26Z</time></trkpt>
<trkpt lat="46.63995414" lon="6.41991405"><ele></ele><time>2014-7-27T22:11:29Z</time></trkpt>
<trkpt lat="46.64023116" lon="6.42111115"><ele></ele><time>2014-7-27T22:11:32Z</time></trkpt>
<trkpt lat="46.64082158" lon="6.42207247"><ele></ele><time>2014-7-27T22:11:35Z</time></trkpt>
<trkpt lat="46.64169959" lon="6.42269382"><ele></ele><time>2014-7-27T22:11:38Z</time></trkpt>
<trkpt lat="46.64244323" lon="6.42345373"><ele></ele><time>2014-7-27T22:11:41Z</time></trkpt>
<trkpt lat="46.64318419" lon="6.42439116"><ele></ele><time>2014-7-27T22:11:44Z</time></trkpt>
<trkpt lat="46.64398483" lon="6.42522155"><ele></ele><time>2014-7-27T22:11:47Z</time></trkpt>
<trkpt lat="46.64486049" lon="6.42527997"><ele></ele><time>2014-7-27T22:11:50Z</time></trkpt>
<trkpt lat="46.64572416" lon="6.42608950"><ele></ele><time>2014-7-27T22:11:53Z</time></trkpt>
<trkpt lat="46.64624359" lon="6.42732818"><ele></ele><time>2014-7-27T22:11:56Z</time></trkpt>
<trkpt lat="46.64633805" lon="6.42876727"><ele></ele><time>2014-7-27T22:11:59Z</time></trkpt>
<trkpt lat="46.64686670" lon="6.42978877"><ele></ele><time>2014-7-27T22:12:2Z</time></trkpt>
<trkpt lat="46.64755150" lon="6.43042009"><ele></ele><time>2014-7-27T22:12:5Z</time></trkpt>
<trkpt lat="46.64844476" lon="6.43083382"><ele></ele><time>2014-7-27T22:12:8Z</time></trkpt>
<trkpt lat="46.64917583" lon="6.43129625"><ele></ele><time>2014-7-27T22:12:11Z</time></trkpt>
<trkpt lat="46.64817679" lon="6.43070717"><ele></ele><time>2014-7-27T22:12:14Z</time></trkpt>
<trkpt lat="46.64749777" lon="6.43099987"><ele></ele><time>2014-7-27T22:12:17Z</time></trkpt>
<trkpt lat="46.64749056" lon="6.43181928"><ele></ele><time>2014-7-27T22:12:20Z</time></trkpt>
<trkpt lat="46.64789549" lon="6.43302603"><ele></ele><time>2014-7-27T22:12:23Z</time></trkpt>
<trkpt lat="46.64868498" lon="6.43377168"><ele></ele><time>2014-7-27T22:12:26Z</time></trkpt>
<trkpt lat="46.64949249" lon="6.43472655"><ele></ele><time>2014-7-27T22:12:29Z</time></trkpt>
<trkpt lat="46.65040813" lon="6.43521756"><ele></ele><time>2014-7-27T22:12:32Z</time></trkpt>
<trkpt lat="46.65142913" lon="6.43588107"><ele></ele><time>2014-7-27T22:12:35Z</time></trkpt>
<trkpt lat="46.65212458" lon="6.43594184"><ele></ele><time>2014-7-27T22:12:38Z</time></trkpt>
<trkpt lat="46.65315086" lon="6.43590177"><ele></ele><time>2014-7-27T22:12:41Z</time></trkpt>
<trkpt lat="46.65299236" lon="6.43481607"><ele></ele><time>2014-7-27T22:12:44Z</time></trkpt>
<trkpt lat="46.65251023" lon="6.43364520"><ele></ele><time>2014-7-27T22:12:47Z</time></trkpt>
<trkpt lat="46.65372242" lon="6.43346842"><ele></ele><time>2014-7-27T22:12:50Z</time></trkpt>
<trkpt lat="46.65447453" lon="6.43458489"><ele></ele><time>2014-7-27T22:12:53Z</time></trkpt>
<trkpt lat="46.65505087" lon="6.43573020"><ele></ele><time>2014-7-27T22:12:56Z</time></trkpt>
<trkpt lat="46.65527106" lon="6.43681079"><ele></ele><time>2014-7-27T22:12:59Z</time></trkpt>
<trkpt lat="46.65533946" lon="6.43800287"><ele></ele><time>2014-7-27T22:13:2Z</time></trkpt>
<trkpt lat="46.65596223" lon="6.43896268"><ele></ele><time>2014-7-27T22:13:5Z</time></trkpt>
<trkpt lat="46.65674603" lon="6.43961236"><ele></ele><time>2014-7-27T22:13:8Z</time></trkpt>
<trkpt lat="46.65723193" lon="6.44068675"><ele></ele><time>2014-7-27T22:13:11Z</time></trkpt>
<trkpt lat="46.65805704" lon="6.44004948"><ele></ele><time>2014-7-27T22:13:14Z</time></trkpt>
<trkpt lat="46.65887629" lon="6.43933919"><ele></ele><time>2014-7-27T22:13:17Z</time></trkpt>
<trkpt lat="46.66001497" lon="6.43951764"><ele></ele><time>2014-7-27T22:13:20Z</time></trkpt>
<trkpt lat="46.66098425" lon="6.43985518"><ele></ele><time>2014-7-27T22:13:23Z</time></trkpt>
<trkpt lat="46.66177609" lon="6.44055055"><ele></ele><time>2014-7-27T22:13:26Z</time></trkpt>
<trkpt lat="46.66185253" lon="6.44192275"><ele></ele><time>2014-7-27T22:13:29Z</time></trkpt>
<trkpt lat="46.66216233" lon="6.44320820"><ele></ele><time>2014-7-27T22:13:32Z</time></trkpt>
<trkpt lat="46.66264337" lon="6.44391077"><ele></ele><time>2014-7-27T22:13:35Z</time></trkpt>
<trkpt lat="46.66360008" lon="6.44454746"><ele></ele><time>2014-7-27T22:13:38Z</time></trkpt>
<trkpt lat="46.66448353" lon="6.44534483"><ele></ele><time>2014-7-27T22:13:41Z</time></trkpt>
<trkpt lat="46.66537059" lon="6.44609316"><ele></ele><time>2014-7-27T22:13:44Z</time></trkpt>
<trkpt lat="46.66627097" lon="6.44653816"><ele></ele><time>2014-7-27T22:13:47Z</time></trkpt>
<trkpt lat="46.66714805" lon="6.44667168"><ele></ele><time>2014-7-27T22:13:50Z</time></trkpt>
<trkpt lat="46.66778977" lon="6.44770257"><ele></ele><time>2014-7-27T22:13:53Z</time></trkpt>
<trkpt lat="46.66834909" lon="6.44888065"><ele></ele><time>2014-7-27T22:13:56Z</time></trkpt>
<trkpt lat="46.66908628" lon="6.44976804"><ele></ele><time>2014-7-27T22:13:59Z</time></trkpt>
<trkpt lat="46.67000192" lon="6.45030423"><ele></ele><time>2014-7-27T22:14:2Z</time></trkpt>
<trkpt lat="46.67083299" lon="6.45098903"><ele></ele><time>2014-7-27T22:14:5Z</time></trkpt>
<trkpt lat="46.67152818" lon="6.45196133"><ele></ele><time>2014-7-27T22:14:8Z</time></trkpt>
<trkpt lat="46.67227484" lon="6.45289759"><ele></ele><time>2014-7-27T22:14:11Z</time></trkpt>
<trkpt lat="46.67301756" lon="6.45375372"><ele></ele><time>2014-7-27T22:14:14Z</time></trkpt>
<trkpt lat="46.67381309" lon="6.45452444"><ele></ele><time>2014-7-27T22:14:17Z</time></trkpt>
<trkpt lat="46.67455296" lon="6.45535919"><ele></ele><time>2014-7-27T22:14:20Z</time></trkpt>
<trkpt lat="46.67526685" lon="6.45616913"><ele></ele><time>2014-7-27T22:14:23Z</time></trkpt>
<trkpt lat="46.67595869" lon="6.45710288"><ele></ele><time>2014-7-27T22:14:26Z</time></trkpt>
<trkpt lat="46.67679286" lon="6.45740747"><ele></ele><time>2014-7-27T22:14:29Z</time></trkpt>
<trkpt lat="46.67770003" lon="6.45751627"><ele></ele><time>2014-7-27T22:14:32Z</time></trkpt>
<trkpt lat="46.67843454" lon="6.45674380"><ele></ele><time>2014-7-27T22:14:35Z</time></trkpt>
<trkpt lat="46.67904734" lon="6.45574383"><ele></ele><time>2014-7-27T22:14:38Z</time></trkpt>
<trkpt lat="46.67977832" lon="6.45492693"><ele></ele><time>2014-7-27T22:14:41Z</time></trkpt>
<trkpt lat="46.68061282" lon="6.45486298"><ele></ele><time>2014-7-27T22:14:44Z</time></trkpt>
<trkpt lat="46.68139310" lon="6.45567074"><ele></ele><time>2014-7-27T22:14:47Z</time></trkpt>
<trkpt lat="46.68216742" lon="6.45636032"><ele></ele><time>2014-7-27T22:14:50Z</time></trkpt>
<trkpt lat="46.68309814" lon="6.45648563"><ele></ele><time>2014-7-27T22:14:53Z</time></trkpt>
<trkpt lat="46.68405158" lon="6.45678386"><ele></ele><time>2014-7-27T22:14:56Z</time></trkpt>
<trkpt lat="46.68498038" lon="6.45686843"><ele></ele><time>2014-7-27T22:14:59Z</time></trkpt>
<trkpt lat="46.68591748" lon="6.45672326"><ele></ele><time>2014-7-27T22:15:2Z</time></trkpt>
<trkpt lat="46.68686036" lon="6.45646627"><ele></ele><time>2014-7-27T22:15:5Z</time></trkpt>
<trkpt lat="46.68787206" lon="6.45662502"><ele></ele><time>2014-7-27T22:15:8Z</time></trkpt>
<trkpt lat="46.68877479" lon="6.45710514"><ele></ele><time>2014-7-27T22:15:11Z</time></trkpt>
<trkpt lat="46.68962857" lon="6.45768709"><ele></ele><time>2014-7-27T22:15:14Z</time></trkpt>
<trkpt lat="46.69040825" lon="6.45844406"><ele></ele><time>2014-7-27T22:15:17Z</time></trkpt>
<trkpt lat="46.69088418" lon="6.45959314"><ele></ele><time>2014-7-27T22:15:20Z</time></trkpt>
<trkpt lat="46.69140235" lon="6.46071724"><ele></ele><time>2014-7-27T22:15:23Z</time></trkpt>
<trkpt lat="46.69167912" lon="6.46182775"><ele></ele><time>2014-7-27T22:15:26Z</time></trkpt>
<trkpt lat="46.69207944" lon="6.46286175"><ele></ele><time>2014-7-27T22:15:29Z</time></trkpt>
<trkpt lat="46.69263583" lon="6.46368988"><ele></ele><time>2014-7-27T22:15:32Z</time></trkpt>
<trkpt lat="46.69245746" lon="6.46498354"><ele></ele><time>2014-7-27T22:15:35Z</time></trkpt>
<trkpt lat="46.69226132" lon="6.46634183"><ele></ele><time>2014-7-27T22:15:38Z</time></trkpt>
<trkpt lat="46.69220483" lon="6.46763868"><ele></ele><time>2014-7-27T22:15:41Z</time></trkpt>
<trkpt lat="46.69219879" lon="6.46896947"><ele></ele><time>2014-7-27T22:15:44Z</time></trkpt>
<trkpt lat="46.69234598" lon="6.47029214"><ele></ele><time>2014-7-27T22:15:47Z</time></trkpt>
<trkpt lat="46.69304629" lon="6.47067779"><ele></ele><time>2014-7-27T22:15:50Z</time></trkpt>
<trkpt lat="46.69373989" lon="6.47152109"><ele></ele><time>2014-7-27T22:15:53Z</time></trkpt>
<trkpt lat="46.69431950" lon="6.47251887"><ele></ele><time>2014-7-27T22:15:56Z</time></trkpt>
<trkpt lat="46.69441916" lon="6.47382645"><ele></ele><time>2014-7-27T22:15:59Z</time></trkpt>
<trkpt lat="46.69440449" lon="6.47514199"><ele></ele><time>2014-7-27T22:16:2Z</time></trkpt>
<trkpt lat="46.69438446" lon="6.47560006"><ele></ele><time>2014-7-27T22:16:5Z</time></trkpt>
<trkpt lat="46.69441002" lon="6.47558765"><ele></ele><time>2014-7-27T22:16:8Z</time></trkpt>
<trkpt lat="46.69421607" lon="6.47691996"><ele></ele><time>2014-7-27T22:16:11Z</time></trkpt>
<trkpt lat="46.69349346" lon="6.47766620"><ele></ele><time>2014-7-27T22:16:14Z</time></trkpt>
<trkpt lat="46.69286398" lon="6.47859315"><ele></ele><time>2014-7-27T22:16:17Z</time></trkpt>
<trkpt lat="46.69245226" lon="6.47977752"><ele></ele><time>2014-7-27T22:16:20Z</time></trkpt>
<trkpt lat="46.69190719" lon="6.48081796"><ele></ele><time>2014-7-27T22:16:23Z</time></trkpt>
<trkpt lat="46.69101678" lon="6.48117067"><ele></ele><time>2014-7-27T22:16:26Z</time></trkpt>
<trkpt lat="46.69012452" lon="6.48152975"><ele></ele><time>2014-7-27T22:16:29Z</time></trkpt>
<trkpt lat="46.68921257" lon="6.48178289"><ele></ele><time>2014-7-27T22:16:32Z</time></trkpt>
<trkpt lat="46.68827003" lon="6.48154819"><ele></ele><time>2014-7-27T22:16:35Z</time></trkpt>
<trkpt lat="46.68734198" lon="6.48143420"><ele></ele><time>2014-7-27T22:16:38Z</time></trkpt>
<trkpt lat="46.68645836" lon="6.48094134"><ele></ele><time>2014-7-27T22:16:41Z</time></trkpt>
<trkpt lat="46.68561657" lon="6.48053968"><ele></ele><time>2014-7-27T22:16:44Z</time></trkpt>
<trkpt lat="46.68467646" lon="6.48052904"><ele></ele><time>2014-7-27T22:16:47Z</time></trkpt>
<trkpt lat="46.68375713" lon="6.48033114"><ele></ele><time>2014-7-27T22:16:50Z</time></trkpt>
<trkpt lat="46.68298138" lon="6.48113647"><ele></ele><time>2014-7-27T22:16:53Z</time></trkpt>
<trkpt lat="46.68244000" lon="6.48223769"><ele></ele><time>2014-7-27T22:16:56Z</time></trkpt>
<trkpt lat="46.68172242" lon="6.48321435"><ele></ele><time>2014-7-27T22:16:59Z</time></trkpt>
<trkpt lat="46.68071492" lon="6.48376563"><ele></ele><time>2014-7-27T22:17:2Z</time></trkpt>
<trkpt lat="46.67970842" lon="6.48376320"><ele></ele><time>2014-7-27T22:17:5Z</time></trkpt>
<trkpt lat="46.67875062" lon="6.48408540"><ele></ele><time>2014-7-27T22:17:8Z</time></trkpt>
<trkpt lat="46.67786130" lon="6.48470934"><ele></ele><time>2014-7-27T22:17:11Z</time></trkpt>
<trkpt lat="46.67697877" lon="6.48534788"><ele></ele><time>2014-7-27T22:17:14Z</time></trkpt>
<trkpt lat="46.67630226" lon="6.48631322"><ele></ele><time>2014-7-27T22:17:17Z</time></trkpt>
<trkpt lat="46.67540263" lon="6.48658773"><ele></ele><time>2014-7-27T22:17:20Z</time></trkpt>
<trkpt lat="46.67462764" lon="6.48736683"><ele></ele><time>2014-7-27T22:17:23Z</time></trkpt>
<trkpt lat="46.67404460" lon="6.48846310"><ele></ele><time>2014-7-27T22:17:26Z</time></trkpt>
<trkpt lat="46.67357764" lon="6.48970555"><ele></ele><time>2014-7-27T22:17:29Z</time></trkpt>
<trkpt lat="46.67326827" lon="6.49102989"><ele></ele><time>2014-7-27T22:17:32Z</time></trkpt>
<trkpt lat="46.67317866" lon="6.49240636"><ele></ele><time>2014-7-27T22:17:35Z</time></trkpt>
<trkpt lat="46.67324396" lon="6.49374864"><ele></ele><time>2014-7-27T22:17:38Z</time></trkpt>
<trkpt lat="46.67243645" lon="6.49457124"><ele></ele><time>2014-7-27T22:17:41Z</time></trkpt>
<trkpt lat="46.67192473" lon="6.49572476"><ele></ele><time>2014-7-27T22:17:44Z</time></trkpt>
<trkpt lat="46.67143707" lon="6.49692144"><ele></ele><time>2014-7-27T22:17:47Z</time></trkpt>
<trkpt lat="46.67109702" lon="6.49816188"><ele></ele><time>2014-7-27T22:17:50Z</time></trkpt>
<trkpt lat="46.67061036" lon="6.49926469"><ele></ele><time>2014-7-27T22:17:53Z</time></trkpt>
<trkpt lat="46.67006764" lon="6.50032156"><ele></ele><time>2014-7-27T22:17:56Z</time></trkpt>
<trkpt lat="46.66966564" lon="6.50159318"><ele></ele><time>2014-7-27T22:17:59Z</time></trkpt>
<trkpt lat="46.66920522" lon="6.50281476"><ele></ele><time>2014-7-27T22:18:2Z</time></trkpt>
<trkpt lat="46.66886299" lon="6.50402175"><ele></ele><time>2014-7-27T22:18:5Z</time></trkpt>
<trkpt lat="46.66846686" lon="6.50516898"><ele></ele><time>2014-7-27T22:18:8Z</time></trkpt>
<trkpt lat="46.66837164" lon="6.50635075"><ele></ele><time>2014-7-27T22:18:11Z</time></trkpt>
<trkpt lat="46.66776773" lon="6.50731584"><ele></ele><time>2014-7-27T22:18:14Z</time></trkpt>
<trkpt lat="46.66749875" lon="6.50858888"><ele></ele><time>2014-7-27T22:18:17Z</time></trkpt>
<trkpt lat="46.66681227" lon="6.50823743"><ele></ele><time>2014-7-27T22:18:20Z</time></trkpt>
<trkpt lat="46.66643542" lon="6.50748474"><ele></ele><time>2014-7-27T22:18:23Z</time></trkpt>
<trkpt lat="46.66667707" lon="6.50621966"><ele></ele><time>2014-7-27T22:18:26Z</time></trkpt>
<trkpt lat="46.66598096" lon="6.50573434"><ele></ele><time>2014-7-27T22:18:29Z</time></trkpt>
<trkpt lat="46.66534703" lon="6.50560560"><ele></ele><time>2014-7-27T22:18:32Z</time></trkpt>
<trkpt lat="46.66537075" lon="6.50423650"><ele></ele><time>2014-7-27T22:18:35Z</time></trkpt>
<trkpt lat="46.66479735" lon="6.50466515"><ele></ele><time>2014-7-27T22:18:38Z</time></trkpt>
<trkpt lat="46.66400325" lon="6.50546889"><ele></ele><time>2014-7-27T22:18:41Z</time></trkpt>
<trkpt lat="46.66297789" lon="6.50584096"><ele></ele><time>2014-7-27T22:18:44Z</time></trkpt>
<trkpt lat="46.66245318" lon="6.50702323"><ele></ele><time>2014-7-27T22:18:47Z</time></trkpt>
<trkpt lat="46.66213056" lon="6.50821874"><ele></ele><time>2014-7-27T22:18:50Z</time></trkpt>
<trkpt lat="46.66137862" lon="6.50893506"><ele></ele><time>2014-7-27T22:18:53Z</time></trkpt>
<trkpt lat="46.66090722" lon="6.50785354"><ele></ele><time>2014-7-27T22:18:56Z</time></trkpt>
<trkpt lat="46.66039542" lon="6.50669734"><ele></ele><time>2014-7-27T22:18:59Z</time></trkpt>
<trkpt lat="46.65962647" lon="6.50600734"><ele></ele><time>2014-7-27T22:19:2Z</time></trkpt>
<trkpt lat="46.65885609" lon="6.50657287"><ele></ele><time>2014-7-27T22:19:5Z</time></trkpt>
<trkpt lat="46.65808755" lon="6.50613257"><ele></ele><time>2014-7-27T22:19:8Z</time></trkpt>
<trkpt lat="46.65766653" lon="6.50711644"><ele></ele><time>2014-7-27T22:19:11Z</time></trkpt>
<trkpt lat="46.65685717" lon="6.50767718"><ele></ele><time>2014-7-27T22:19:14Z</time></trkpt>
<trkpt lat="46.65594648" lon="6.50819669"><ele></ele><time>2014-7-27T22:19:17Z</time></trkpt>
<trkpt lat="46.65505146" lon="6.50872543"><ele></ele><time>2014-7-27T22:19:20Z</time></trkpt>
<trkpt lat="46.65415744" lon="6.50839794"><ele></ele><time>2014-7-27T22:19:23Z</time></trkpt>
<trkpt lat="46.65324004" lon="6.50828118"><ele></ele><time>2014-7-27T22:19:26Z</time></trkpt>
<trkpt lat="46.65230487" lon="6.50790727"><ele></ele><time>2014-7-27T22:19:29Z</time></trkpt>
<trkpt lat="46.65141966" lon="6.50747510"><ele></ele><time>2014-7-27T22:19:32Z</time></trkpt>
<trkpt lat="46.65064249" lon="6.50679423"><ele></ele><time>2014-7-27T22:19:35Z</time></trkpt>
<trkpt lat="46.64989122" lon="6.50601748"><ele></ele><time>2014-7-27T22:19:38Z</time></trkpt>
<trkpt lat="46.64906586" lon="6.50534056"><ele></ele><time>2014-7-27T22:19:41Z</time></trkpt>
<trkpt lat="46.64824485" lon="6.50475718"><ele></ele><time>2014-7-27T22:19:44Z</time></trkpt>
<trkpt lat="46.64748947" lon="6.50396978"><ele></ele><time>2014-7-27T22:19:47Z</time></trkpt>
<trkpt lat="46.64699125" lon="6.50283068"><ele></ele><time>2014-7-27T22:19:50Z</time></trkpt>
<trkpt lat="46.64654005" lon="6.50165772"><ele></ele><time>2014-7-27T22:19:53Z</time></trkpt>
<trkpt lat="46.64593756" lon="6.50065868"><ele></ele><time>2014-7-27T22:19:56Z</time></trkpt>
<trkpt lat="46.64514212" lon="6.49999836"><ele></ele><time>2014-7-27T22:19:59Z</time></trkpt>
<trkpt lat="46.64422757" lon="6.49975134"><ele></ele><time>2014-7-27T22:20:2Z</time></trkpt>
<trkpt lat="46.64328067" lon="6.49970013"><ele></ele><time>2014-7-27T22:20:5Z</time></trkpt>
<trkpt lat="46.64235807" lon="6.49973156"><ele></ele><time>2014-7-27T22:20:8Z</time></trkpt>
<trkpt lat="46.64146716" lon="6.49949603"><ele></ele><time>2014-7-27T22:20:11Z</time></trkpt>
<trkpt lat="46.64065420" lon="6.49890049"><ele></ele><time>2014-7-27T22:20:14Z</time></trkpt>
<trkpt lat="46.63986722" lon="6.49813883"><ele></ele><time>2014-7-27T22:20:17Z</time></trkpt>
<trkpt lat="46.63905409" lon="6.49751564"><ele></ele><time>2014-7-27T22:20:20Z</time></trkpt>
<trkpt lat="46.63817709" lon="6.49714356"><ele></ele><time>2014-7-27T22:20:23Z</time></trkpt>
<trkpt lat="46.63725575" lon="6.49695497"><ele></ele><time>2014-7-27T22:20:26Z</time></trkpt>
<trkpt lat="46.63631254" lon="6.49693117"><ele></ele><time>2014-7-27T22:20:29Z</time></trkpt>
<trkpt lat="46.63545138" lon="6.49648516"><ele></ele><time>2014-7-27T22:20:32Z</time></trkpt>
<trkpt lat="46.63459735" lon="6.49597353"><ele></ele><time>2014-7-27T22:20:35Z</time></trkpt>
<trkpt lat="46.63371256" lon="6.49558403"><ele></ele><time>2014-7-27T22:20:38Z</time></trkpt>
<trkpt lat="46.63282759" lon="6.49508296"><ele></ele><time>2014-7-27T22:20:41Z</time></trkpt>
<trkpt lat="46.63196694" lon="6.49459463"><ele></ele><time>2014-7-27T22:20:44Z</time></trkpt>
<trkpt lat="46.63110537" lon="6.49410982"><ele></ele><time>2014-7-27T22:20:47Z</time></trkpt>
<trkpt lat="46.63025695" lon="6.49415944"><ele></ele><time>2014-7-27T22:20:50Z</time></trkpt>
<trkpt lat="46.62928683" lon="6.49392810"><ele></ele><time>2014-7-27T22:20:53Z</time></trkpt>
<trkpt lat="46.62834537" lon="6.49381427"><ele></ele><time>2014-7-27T22:20:56Z</time></trkpt>
<trkpt lat="46.62729420" lon="6.49395442"><ele></ele><time>2014-7-27T22:20:59Z</time></trkpt>
<trkpt lat="46.62628904" lon="6.49447954"><ele></ele><time>2014-7-27T22:21:2Z</time></trkpt>
<trkpt lat="46.62536410" lon="6.49517197"><ele></ele><time>2014-7-27T22:21:5Z</time></trkpt>
<trkpt lat="46.62438786" lon="6.49536920"><ele></ele><time>2014-7-27T22:21:8Z</time></trkpt>
<trkpt lat="46.62335252" lon="6.49496997"><ele></ele><time>2014-7-27T22:21:11Z</time></trkpt>
<trkpt lat="46.62230680" lon="6.49465590"><ele></ele><time>2014-7-27T22:21:14Z</time></trkpt>
<trkpt lat="46.62139175" lon="6.49410294"><ele></ele><time>2014-7-27T22:21:17Z</time></trkpt>
<trkpt lat="46.62038273" lon="6.49419204"><ele></ele><time>2014-7-27T22:21:20Z</time></trkpt>
<trkpt lat="46.61942678" lon="6.49415676"><ele></ele><time>2014-7-27T22:21:23Z</time></trkpt>
<trkpt lat="46.61852036" lon="6.49371210"><ele></ele><time>2014-7-27T22:21:26Z</time></trkpt>
<trkpt lat="46.61762559" lon="6.49325352"><ele></ele><time>2014-7-27T22:21:29Z</time></trkpt>
<trkpt lat="46.61669863" lon="6.49307289"><ele></ele><time>2014-7-27T22:21:32Z</time></trkpt>
<trkpt lat="46.61579247" lon="6.49309452"><ele></ele><time>2014-7-27T22:21:35Z</time></trkpt>
<trkpt lat="46.61487197" lon="6.49308002"><ele></ele><time>2014-7-27T22:21:38Z</time></trkpt>
<trkpt lat="46.61394166" lon="6.49295437"><ele></ele><time>2014-7-27T22:21:41Z</time></trkpt>
<trkpt lat="46.61302166" lon="6.49273225"><ele></ele><time>2014-7-27T22:21:44Z</time></trkpt>
<trkpt lat="46.61210225" lon="6.49250443"><ele></ele><time>2014-7-27T22:21:47Z</time></trkpt>
<trkpt lat="46.61118435" lon="6.49227376"><ele></ele><time>2014-7-27T22:21:50Z</time></trkpt>
<trkpt lat="46.61024549" lon="6.49201007"><ele></ele><time>2014-7-27T22:21:53Z</time></trkpt>
<trkpt lat="46.60960352" lon="6.49240142"><ele></ele><time>2014-7-27T22:21:56Z</time></trkpt>
<trkpt lat="46.60931828" lon="6.49369257"><ele></ele><time>2014-7-27T22:21:59Z</time></trkpt>
<trkpt lat="46.60904663" lon="6.49494482"><ele></ele><time>2014-7-27T22:22:2Z</time></trkpt>
<trkpt lat="46.60883834" lon="6.49629724"><ele></ele><time>2014-7-27T22:22:5Z</time></trkpt>
<trkpt lat="46.60864547" lon="6.49761303"><ele></ele><time>2014-7-27T22:22:8Z</time></trkpt>
<trkpt lat="46.60840139" lon="6.49890125"><ele></ele><time>2014-7-27T22:22:11Z</time></trkpt>
<trkpt lat="46.60860104" lon="6.50002048"><ele></ele><time>2014-7-27T22:22:14Z</time></trkpt>
<trkpt lat="46.60928928" lon="6.50090368"><ele></ele><time>2014-7-27T22:22:17Z</time></trkpt>
<trkpt lat="46.60991784" lon="6.50189845"><ele></ele><time>2014-7-27T22:22:20Z</time></trkpt>
<trkpt lat="46.61034138" lon="6.50303939"><ele></ele><time>2014-7-27T22:22:23Z</time></trkpt>
<trkpt lat="46.61080129" lon="6.50422744"><ele></ele><time>2014-7-27T22:22:26Z</time></trkpt>
<trkpt lat="46.61123833" lon="6.50540535"><ele></ele><time>2014-7-27T22:22:29Z</time></trkpt>
<trkpt lat="46.61162985" lon="6.50655778"><ele></ele><time>2014-7-27T22:22:32Z</time></trkpt>
<trkpt lat="46.61110329" lon="6.50744668"><ele></ele><time>2014-7-27T22:22:35Z</time></trkpt>
<trkpt lat="46.61136137" lon="6.50797290"><ele></ele><time>2014-7-27T22:22:38Z</time></trkpt>
</trkseg></trk></gpx>